createdAt,value
2023-03-03T00:00:37.903Z,1.70
2023-03-03T00:03:08.220Z,1.70
2023-03-03T00:05:36.196Z,1.70
2023-03-03T00:08:03.948Z,1.80
2023-03-03T00:10:31.096Z,1.80
2023-03-03T00:12:58.049Z,1.90
2023-03-03T00:15:26.289Z,2.70
2023-03-03T00:17:53.803Z,1.90
2023-03-03T00:20:56.777Z,1.90
2023-03-03T00:23:39.807Z,2.50
2023-03-03T00:26:30.264Z,1.80
2023-03-03T00:29:00.376Z,3.90
2023-03-03T00:31:34.426Z,3.80
2023-03-03T00:34:20.442Z,1.90
2023-03-03T00:36:49.564Z,1.80
2023-03-03T00:39:37.625Z,1.90
2023-03-03T00:42:18.590Z,1.90
2023-03-03T00:45:01.150Z,1.90
2023-03-03T00:47:31.863Z,1.90
2023-03-03T00:50:07.854Z,1.90
2023-03-03T00:52:40.658Z,1.90
2023-03-03T00:55:08.383Z,1.90
2023-03-03T00:57:35.351Z,2.00
2023-03-03T01:00:02.134Z,2.00
2023-03-03T01:02:29.601Z,2.00
2023-03-03T01:04:57.976Z,2.00
2023-03-03T01:07:28.004Z,1.90
2023-03-03T01:09:54.793Z,1.80
2023-03-03T01:12:21.661Z,1.70
2023-03-03T01:14:49.425Z,1.70
2023-03-03T01:17:16.255Z,1.60
2023-03-03T01:19:42.976Z,1.60
2023-03-03T01:22:09.692Z,1.50
2023-03-03T01:24:36.895Z,1.40
2023-03-03T01:27:03.764Z,1.40
2023-03-03T01:29:30.736Z,1.40
2023-03-03T01:31:57.799Z,1.50
2023-03-03T01:34:25.264Z,1.60
2023-03-03T01:36:52.075Z,1.60
2023-03-03T01:39:18.967Z,1.60
2023-03-03T01:41:47.894Z,1.60
2023-03-03T01:44:15.885Z,1.60
2023-03-03T01:47:03.836Z,1.60
2023-03-03T01:49:54.768Z,1.50
2023-03-03T01:52:27.942Z,1.60
2023-03-03T01:55:00.655Z,1.50
2023-03-03T01:57:35.268Z,1.30
2023-03-03T02:00:04.125Z,1.20
2023-03-03T02:02:32.701Z,1.20
2023-03-03T02:04:59.437Z,1.20
2023-03-03T02:07:29.065Z,1.10
2023-03-03T02:10:16.575Z,1.00
2023-03-03T02:12:58.441Z,0.70
2023-03-03T02:15:29.604Z,0.80
2023-03-03T02:17:59.605Z,0.80
2023-03-03T02:20:26.354Z,1.00
2023-03-03T02:23:24.690Z,1.10
2023-03-03T02:26:31.274Z,1.20
2023-03-03T02:28:58.311Z,1.10
2023-03-03T02:31:27.562Z,1.00
2023-03-03T02:33:55.720Z,1.00
2023-03-03T02:36:26.112Z,1.00
2023-03-03T02:38:59.073Z,1.40
2023-03-03T02:41:41.098Z,1.00
2023-03-03T02:44:12.818Z,0.90
2023-03-03T02:46:47.115Z,1.00
2023-03-03T02:49:16.458Z,1.00
2023-03-03T02:51:43.882Z,0.90
2023-03-03T02:54:13.077Z,0.80
2023-03-03T02:56:40.232Z,0.80
2023-03-03T02:59:07.699Z,0.70
2023-03-03T03:01:38.491Z,1.40
2023-03-03T03:04:14.947Z,0.70
2023-03-03T03:06:42.546Z,1.30
2023-03-03T03:09:10.397Z,0.80
2023-03-03T03:11:38.173Z,0.80
2023-03-03T03:14:06.710Z,0.80
2023-03-03T03:16:34.364Z,0.90
2023-03-03T03:19:02.591Z,1.40
2023-03-03T03:21:30.282Z,0.80
2023-03-03T03:24:00.834Z,0.90
2023-03-03T03:26:27.798Z,0.90
2023-03-03T03:28:54.925Z,0.90
2023-03-03T03:31:22.572Z,0.90
2023-03-03T03:33:49.721Z,0.90
2023-03-03T03:36:17.346Z,1.70
2023-03-03T03:38:44.520Z,0.80
2023-03-03T03:41:13.829Z,0.80
2023-03-03T03:43:45.455Z,0.80
2023-03-03T03:46:13.274Z,0.90
2023-03-03T03:48:40.242Z,0.90
2023-03-03T03:51:07.249Z,0.90
2023-03-03T03:53:34.041Z,0.80
2023-03-03T03:56:01.208Z,0.90
2023-03-03T03:58:28.208Z,0.90
2023-03-03T04:00:55.683Z,0.90
2023-03-03T04:03:27.379Z,0.80
2023-03-03T04:05:55.366Z,0.70
2023-03-03T04:08:22.496Z,0.70
2023-03-03T04:10:49.463Z,0.60
2023-03-03T04:13:16.434Z,0.60
2023-03-03T04:15:43.555Z,0.60
2023-03-03T04:18:13.593Z,0.60
2023-03-03T04:20:40.782Z,1.40
2023-03-03T04:23:07.805Z,0.80
2023-03-03T04:25:37.842Z,0.90
2023-03-03T04:28:05.776Z,0.90
2023-03-03T04:30:33.107Z,0.90
2023-03-03T04:32:59.978Z,0.90
2023-03-03T04:35:27.155Z,1.00
2023-03-03T04:37:54.115Z,1.00
2023-03-03T04:40:21.135Z,0.90
2023-03-03T04:42:51.164Z,0.90
2023-03-03T04:45:21.785Z,1.30
2023-03-03T04:47:48.845Z,0.90
2023-03-03T04:50:16.509Z,0.90
2023-03-03T04:52:43.559Z,1.00
2023-03-03T04:55:10.840Z,1.00
2023-03-03T04:57:37.597Z,1.00
2023-03-03T05:00:06.649Z,1.00
2023-03-03T05:02:33.537Z,0.90
2023-03-03T05:05:00.346Z,0.90
2023-03-03T05:07:29.264Z,0.90
2023-03-03T05:09:56.173Z,0.80
2023-03-03T05:12:27.381Z,0.70
2023-03-03T05:14:54.400Z,0.70
2023-03-03T05:17:21.214Z,0.70
2023-03-03T05:19:52.209Z,0.80
2023-03-03T05:22:21.071Z,0.80
2023-03-03T05:24:49.501Z,0.80
2023-03-03T05:27:17.417Z,0.70
2023-03-03T05:29:45.737Z,0.70
2023-03-03T05:32:12.765Z,0.60
2023-03-03T05:34:39.822Z,0.50
2023-03-03T05:37:10.891Z,0.50
2023-03-03T05:39:42.526Z,0.50
2023-03-03T05:42:13.025Z,0.50
2023-03-03T05:44:39.995Z,1.50
2023-03-03T05:47:07.131Z,0.50
2023-03-03T05:49:38.456Z,0.60
2023-03-03T05:52:05.663Z,0.60
2023-03-03T05:54:32.468Z,0.60
2023-03-03T05:56:59.325Z,0.60
2023-03-03T05:59:26.417Z,0.70
2023-03-03T06:01:53.407Z,0.70
2023-03-03T06:04:20.750Z,0.70
2023-03-03T06:06:47.614Z,0.80
2023-03-03T06:09:14.547Z,0.80
2023-03-03T06:11:41.571Z,0.80
2023-03-03T06:14:12.168Z,0.80
2023-03-03T06:16:40.209Z,0.70
2023-03-03T06:19:07.329Z,0.60
2023-03-03T06:21:34.509Z,0.50
2023-03-03T06:24:01.368Z,0.40
2023-03-03T06:26:28.326Z,0.40
2023-03-03T06:28:56.371Z,0.40
2023-03-03T06:31:23.490Z,0.50
2023-03-03T06:33:51.548Z,0.60
2023-03-03T06:36:19.809Z,0.60
2023-03-03T06:38:50.478Z,0.60
2023-03-03T06:41:17.856Z,0.50
2023-03-03T06:43:44.577Z,2.00
2023-03-03T06:46:11.462Z,0.60
2023-03-03T06:48:38.717Z,0.60
2023-03-03T06:51:28.555Z,0.70
2023-03-03T06:54:00.047Z,0.80
2023-03-03T06:56:27.795Z,0.90
2023-03-03T06:59:00.617Z,1.00
2023-03-03T07:01:33.710Z,2.00
2023-03-03T07:04:04.794Z,1.10
2023-03-03T07:06:32.830Z,1.20
2023-03-03T07:08:59.759Z,1.30
2023-03-03T07:11:29.789Z,1.40
2023-03-03T07:13:57.301Z,1.40
2023-03-03T07:16:28.766Z,1.40
2023-03-03T07:18:58.838Z,1.40
2023-03-03T07:21:36.955Z,1.30
2023-03-03T07:24:29.434Z,1.50
2023-03-03T07:27:14.283Z,1.60
2023-03-03T07:29:47.764Z,1.80
2023-03-03T07:32:36.780Z,1.80
2023-03-03T07:35:26.919Z,1.80
2023-03-03T07:37:57.990Z,1.80
2023-03-03T07:40:34.137Z,1.70
2023-03-03T07:43:02.631Z,1.50
2023-03-03T07:45:35.142Z,1.40
2023-03-03T07:48:15.853Z,1.30
2023-03-03T07:50:42.813Z,1.30
2023-03-03T07:53:26.273Z,1.30
2023-03-03T07:55:53.314Z,1.30
2023-03-03T07:58:23.664Z,1.40
2023-03-03T08:01:28.618Z,1.50
2023-03-03T08:03:56.749Z,1.60
2023-03-03T08:06:35.545Z,1.80
2023-03-03T08:09:12.298Z,3.50
2023-03-03T08:11:53.410Z,2.20
2023-03-03T08:14:38.994Z,2.30
2023-03-03T08:17:20.986Z,2.40
2023-03-03T08:19:48.887Z,2.60
2023-03-03T08:22:19.793Z,2.60
2023-03-03T08:24:46.511Z,2.70
2023-03-03T08:27:13.463Z,2.70
2023-03-03T08:29:40.437Z,2.60
2023-03-03T08:32:07.354Z,2.50
2023-03-03T08:34:34.461Z,2.50
2023-03-03T08:37:01.276Z,2.40
2023-03-03T08:39:28.094Z,2.50
2023-03-03T08:41:54.882Z,2.50
2023-03-03T08:44:21.650Z,2.70
2023-03-03T08:46:48.820Z,2.70
2023-03-03T08:49:15.942Z,2.80
2023-03-03T08:51:42.666Z,2.90
2023-03-03T08:54:09.661Z,3.00
2023-03-03T08:56:36.544Z,3.10
2023-03-03T08:59:03.690Z,3.10
2023-03-03T09:01:32.689Z,3.20
2023-03-03T09:03:59.564Z,3.30
2023-03-03T09:06:26.599Z,3.40
2023-03-03T09:08:56.769Z,3.50
2023-03-03T09:11:29.153Z,3.60
2023-03-03T09:14:21.020Z,3.70
2023-03-03T09:16:55.804Z,3.90
2023-03-03T09:19:32.566Z,4.00
2023-03-03T09:22:15.087Z,4.20
2023-03-03T09:24:43.890Z,4.30
2023-03-03T09:27:31.467Z,4.40
2023-03-03T09:30:02.889Z,4.50
2023-03-03T09:32:39.967Z,4.50
2023-03-03T09:35:25.337Z,4.60
2023-03-03T09:37:53.987Z,4.80
2023-03-03T09:40:35.891Z,4.90
2023-03-03T09:43:13.119Z,5.00
2023-03-03T09:46:01.640Z,5.40
2023-03-03T09:48:47.123Z,5.20
2023-03-03T09:51:27.830Z,7.10
2023-03-03T09:54:16.680Z,5.30
2023-03-03T09:56:50.887Z,5.40
2023-03-03T09:59:43.100Z,5.40
2023-03-03T10:02:41.021Z,5.50
2023-03-03T10:05:31.741Z,5.60
2023-03-03T10:08:06.282Z,5.60
2023-03-03T10:11:02.529Z,5.60
2023-03-03T10:13:45.647Z,5.60
2023-03-03T10:16:33.681Z,5.60
2023-03-03T10:19:47.620Z,5.70
2023-03-03T10:22:34.429Z,5.80
2023-03-03T10:25:26.110Z,5.90
2023-03-03T10:28:02.514Z,5.90
2023-03-03T10:31:05.599Z,6.00
2023-03-03T10:33:48.673Z,6.00
2023-03-03T10:36:30.868Z,6.10
2023-03-03T10:39:23.576Z,6.20
2023-03-03T10:42:17.235Z,6.30
2023-03-03T10:45:07.540Z,6.40
2023-03-03T10:47:47.049Z,6.50
2023-03-03T10:50:24.394Z,6.60
2023-03-03T10:52:55.103Z,6.70
2023-03-03T10:55:42.751Z,6.70
2023-03-03T10:58:09.681Z,6.80
2023-03-03T11:00:52.617Z,6.80
2023-03-03T11:03:44.061Z,6.90
2023-03-03T11:06:23.068Z,7.00
2023-03-03T11:09:03.128Z,7.10
2023-03-03T11:11:47.671Z,7.20
2023-03-03T11:14:22.300Z,7.20
2023-03-03T11:17:04.370Z,8.00
2023-03-03T11:19:52.717Z,7.20
2023-03-03T11:22:49.010Z,7.20
2023-03-03T11:25:38.895Z,7.20
2023-03-03T11:28:38.643Z,7.20
2023-03-03T11:31:06.737Z,7.20
2023-03-03T11:34:03.094Z,7.30
2023-03-03T11:36:49.757Z,7.30
2023-03-03T11:39:32.737Z,7.40
2023-03-03T11:42:24.669Z,7.40
2023-03-03T11:45:03.455Z,7.50
2023-03-03T11:47:38.562Z,7.60
2023-03-03T11:50:31.442Z,7.60
2023-03-03T11:53:21.025Z,7.70
2023-03-03T11:56:07.790Z,7.70
2023-03-03T11:58:47.041Z,7.80
2023-03-03T12:01:38.063Z,7.80
2023-03-03T12:04:14.060Z,7.80
2023-03-03T12:07:22.680Z,7.80
2023-03-03T12:10:02.712Z,7.80
2023-03-03T12:12:42.258Z,7.70
2023-03-03T12:15:27.801Z,7.70
2023-03-03T12:18:47.274Z,7.80
2023-03-03T12:21:59.099Z,7.80
2023-03-03T12:24:49.414Z,7.90
2023-03-03T12:27:31.773Z,8.90
2023-03-03T12:30:05.358Z,7.90
2023-03-03T12:33:04.868Z,7.90
2023-03-03T12:35:44.999Z,7.90
2023-03-03T12:38:30.540Z,7.90
2023-03-03T12:41:20.355Z,8.00
2023-03-03T12:44:32.958Z,8.00
2023-03-03T12:47:16.164Z,8.00
2023-03-03T12:50:06.964Z,8.00
2023-03-03T12:52:44.405Z,8.00
2023-03-03T12:55:23.034Z,8.00
2023-03-03T12:58:04.546Z,8.00
2023-03-03T13:00:52.554Z,8.00
2023-03-03T13:03:32.078Z,8.00
2023-03-03T13:06:30.618Z,8.00
2023-03-03T13:09:03.428Z,8.10
2023-03-03T13:11:55.285Z,8.10
2023-03-03T13:14:49.316Z,8.10
2023-03-03T13:17:25.608Z,8.10
2023-03-03T13:20:00.091Z,8.10
2023-03-03T13:22:41.971Z,8.10
2023-03-03T13:25:46.285Z,8.10
2023-03-03T13:28:51.725Z,8.20
2023-03-03T13:31:25.243Z,8.20
2023-03-03T13:34:00.312Z,8.20
2023-03-03T13:36:41.200Z,8.20
2023-03-03T13:39:24.112Z,8.30
2023-03-03T13:42:03.051Z,8.20
2023-03-03T13:44:43.434Z,8.30
2023-03-03T13:47:28.833Z,8.30
2023-03-03T13:50:17.596Z,8.20
2023-03-03T13:53:05.731Z,8.20
2023-03-03T13:55:53.528Z,8.20
2023-03-03T13:58:39.886Z,8.20
2023-03-03T14:01:43.687Z,8.30
2023-03-03T14:04:31.935Z,8.30
2023-03-03T14:07:31.694Z,8.30
2023-03-03T14:10:04.122Z,8.30
2023-03-03T14:12:47.048Z,9.40
2023-03-03T14:15:26.741Z,8.30
2023-03-03T14:18:12.069Z,8.30
2023-03-03T14:20:58.317Z,8.40
2023-03-03T14:23:34.847Z,8.40
2023-03-03T14:26:04.566Z,8.30
2023-03-03T14:28:44.078Z,8.30
2023-03-03T14:31:25.358Z,8.30
2023-03-03T14:34:13.978Z,8.40
2023-03-03T14:36:43.926Z,8.40
2023-03-03T14:39:29.463Z,8.40
2023-03-03T14:41:59.619Z,8.40
2023-03-03T14:44:36.181Z,8.30
2023-03-03T14:47:08.935Z,10.00
2023-03-03T14:49:38.474Z,8.20
2023-03-03T14:52:17.774Z,8.20
2023-03-03T14:54:47.415Z,8.10
2023-03-03T14:57:46.157Z,8.10
2023-03-03T15:00:13.191Z,9.20
2023-03-03T15:03:00.011Z,8.10
2023-03-03T15:05:29.178Z,8.00
2023-03-03T15:08:05.494Z,8.00
2023-03-03T15:10:36.503Z,8.00
2023-03-03T15:13:10.515Z,8.00
2023-03-03T15:15:53.475Z,8.00
2023-03-03T15:18:20.909Z,8.00
2023-03-03T15:20:56.033Z,8.00
2023-03-03T15:23:59.874Z,9.10
2023-03-03T15:27:01.155Z,8.00
2023-03-03T15:29:38.428Z,8.00
2023-03-03T15:32:10.981Z,8.00
2023-03-03T15:34:48.872Z,8.00
2023-03-03T15:37:40.777Z,8.00
2023-03-03T15:40:26.317Z,7.90
2023-03-03T15:42:58.062Z,7.90
2023-03-03T15:45:44.039Z,7.90
2023-03-03T15:48:19.800Z,7.80
2023-03-03T15:50:50.324Z,7.80
2023-03-03T15:53:35.063Z,7.80
2023-03-03T15:56:14.860Z,7.70
2023-03-03T15:59:00.499Z,7.70
2023-03-03T16:01:56.846Z,7.60
2023-03-03T16:04:31.438Z,7.60
2023-03-03T16:07:37.755Z,7.60
2023-03-03T16:10:19.690Z,7.60
2023-03-03T16:13:31.691Z,7.60
2023-03-03T16:16:17.522Z,7.50
2023-03-03T16:19:18.914Z,7.50
2023-03-03T16:22:12.817Z,7.40
2023-03-03T16:24:57.995Z,7.30
2023-03-03T16:27:48.688Z,7.20
2023-03-03T16:31:02.438Z,7.10
2023-03-03T16:33:53.683Z,7.10
2023-03-03T16:36:49.228Z,7.00
2023-03-03T16:39:30.380Z,7.00
2023-03-03T16:42:07.870Z,6.90
2023-03-03T16:44:49.689Z,7.00
2023-03-03T16:47:43.658Z,6.80
2023-03-03T16:50:44.128Z,6.80
2023-03-03T16:53:33.648Z,6.80
2023-03-03T16:56:18.038Z,6.80
2023-03-03T16:59:06.604Z,6.70
2023-03-03T17:01:53.433Z,6.70
2023-03-03T17:04:38.865Z,6.70
2023-03-03T17:07:27.978Z,6.70
2023-03-03T17:10:06.094Z,8.30
2023-03-03T17:13:06.277Z,6.60
2023-03-03T17:15:53.008Z,6.60
2023-03-03T17:19:01.186Z,6.60
2023-03-03T17:21:36.874Z,6.60
2023-03-03T17:24:13.813Z,6.50
2023-03-03T17:27:02.551Z,6.50
2023-03-03T17:29:57.796Z,6.40
2023-03-03T17:32:31.251Z,6.40
2023-03-03T17:35:22.152Z,6.40
2023-03-03T17:37:55.322Z,6.40
2023-03-03T17:40:49.659Z,6.40
2023-03-03T17:43:31.704Z,6.30
2023-03-03T17:46:02.744Z,6.30
2023-03-03T17:49:08.027Z,6.30
2023-03-03T17:51:43.542Z,6.30
2023-03-03T17:54:33.370Z,6.30
2023-03-03T17:57:29.404Z,6.30
2023-03-03T18:00:22.524Z,6.30
2023-03-03T18:03:07.066Z,6.40
2023-03-03T18:05:38.122Z,6.30
2023-03-03T18:08:31.150Z,6.40
2023-03-03T18:11:15.583Z,7.20
2023-03-03T18:14:01.330Z,6.40
2023-03-03T18:17:03.246Z,6.40
2023-03-03T18:19:46.489Z,6.50
2023-03-03T18:22:21.334Z,6.50
2023-03-03T18:24:51.032Z,6.50
2023-03-03T18:27:36.724Z,6.50
2023-03-03T18:30:24.619Z,6.50
2023-03-03T18:32:57.650Z,6.50
2023-03-03T18:35:30.456Z,6.50
2023-03-03T18:37:57.939Z,6.50
2023-03-03T18:40:33.243Z,6.50
2023-03-03T18:43:20.400Z,6.50
2023-03-03T18:45:49.003Z,6.50
2023-03-03T18:48:17.403Z,6.50
2023-03-03T18:50:46.837Z,8.00
2023-03-03T18:53:27.731Z,6.40
2023-03-03T18:55:59.654Z,6.40
2023-03-03T18:58:43.134Z,7.80
2023-03-03T19:01:33.569Z,6.30
2023-03-03T19:04:16.495Z,6.30
2023-03-03T19:06:43.808Z,6.30
2023-03-03T19:09:20.500Z,6.30
2023-03-03T19:11:51.479Z,6.20
2023-03-03T19:14:30.274Z,6.20
2023-03-03T19:16:59.465Z,6.80
2023-03-03T19:19:33.766Z,6.20
2023-03-03T19:22:22.418Z,6.10
2023-03-03T19:25:08.238Z,6.10
2023-03-03T19:28:03.938Z,6.10
2023-03-03T19:30:58.220Z,6.10
2023-03-03T19:33:53.435Z,6.10
2023-03-03T19:36:37.332Z,6.00
2023-03-03T19:39:04.236Z,6.10
2023-03-03T19:41:49.351Z,6.00
2023-03-03T19:44:34.809Z,6.00
2023-03-03T19:47:06.484Z,6.00
2023-03-03T19:49:58.841Z,6.00
2023-03-03T19:52:47.858Z,6.00
2023-03-03T19:55:35.089Z,6.00
2023-03-03T19:58:04.891Z,6.00
2023-03-03T20:00:59.982Z,6.00
2023-03-03T20:03:59.889Z,6.00
2023-03-03T20:06:34.997Z,5.90
2023-03-03T20:09:27.676Z,5.90
2023-03-03T20:12:31.429Z,5.90
2023-03-03T20:15:19.718Z,5.90
2023-03-03T20:17:55.134Z,5.80
2023-03-03T20:20:45.657Z,5.80
2023-03-03T20:23:44.347Z,5.80
2023-03-03T20:26:26.078Z,5.70
2023-03-03T20:29:33.369Z,5.70
2023-03-03T20:32:30.127Z,6.00
2023-03-03T20:35:14.733Z,5.60
2023-03-03T20:37:47.506Z,5.60
2023-03-03T20:40:29.610Z,5.60
2023-03-03T20:43:15.099Z,5.50
2023-03-03T20:45:54.489Z,5.50
2023-03-03T20:48:30.412Z,5.50
2023-03-03T20:51:13.435Z,5.50
2023-03-03T20:53:56.148Z,5.40
2023-03-03T20:56:33.316Z,6.60
2023-03-03T20:59:15.432Z,5.30
2023-03-03T21:02:03.584Z,5.30
2023-03-03T21:04:33.395Z,5.30
2023-03-03T21:07:02.988Z,5.30
2023-03-03T21:09:38.844Z,5.20
2023-03-03T21:12:31.851Z,5.20
2023-03-03T21:15:07.410Z,5.10
2023-03-03T21:17:34.384Z,5.10
2023-03-03T21:20:18.556Z,5.10
2023-03-03T21:22:45.658Z,5.10
2023-03-03T21:25:33.156Z,5.00
2023-03-03T21:28:18.630Z,5.00
2023-03-03T21:31:03.735Z,5.00
2023-03-03T21:33:45.738Z,5.00
2023-03-03T21:36:15.632Z,4.90
2023-03-03T21:38:43.285Z,4.90
2023-03-03T21:41:10.331Z,4.90
2023-03-03T21:43:45.886Z,4.90
2023-03-03T21:46:13.300Z,4.80
2023-03-03T21:48:41.814Z,4.80
2023-03-03T21:51:10.109Z,4.80
2023-03-03T21:53:37.128Z,4.80
2023-03-03T21:56:04.126Z,4.80
2023-03-03T21:58:31.949Z,4.70
2023-03-03T22:00:58.889Z,4.80
2023-03-03T22:03:25.939Z,4.70
2023-03-03T22:05:55.952Z,4.70
2023-03-03T22:08:23.622Z,4.70
2023-03-03T22:10:56.233Z,4.70
2023-03-03T22:13:24.437Z,4.70
2023-03-03T22:15:52.286Z,4.60
2023-03-03T22:18:20.108Z,4.60
2023-03-03T22:20:48.221Z,6.40
2023-03-03T22:23:15.995Z,4.60
2023-03-03T22:25:42.800Z,4.50
2023-03-03T22:28:09.712Z,4.50
2023-03-03T22:30:40.244Z,4.40
2023-03-03T22:33:07.054Z,4.40
2023-03-03T22:35:34.025Z,4.30
2023-03-03T22:38:00.857Z,4.30
2023-03-03T22:40:27.585Z,4.30
2023-03-03T22:42:54.324Z,4.20
2023-03-03T22:45:24.524Z,4.20
2023-03-03T22:47:51.397Z,4.20
2023-03-03T22:50:19.596Z,4.10
2023-03-03T22:52:46.472Z,4.10
2023-03-03T22:55:13.545Z,4.10
2023-03-03T22:57:40.685Z,5.90
2023-03-03T23:00:13.230Z,4.00
2023-03-03T23:02:40.745Z,4.00
2023-03-03T23:05:11.450Z,3.90
2023-03-03T23:07:41.394Z,3.90
2023-03-03T23:10:13.020Z,3.90
2023-03-03T23:12:43.521Z,3.80
2023-03-03T23:15:14.405Z,3.80
2023-03-03T23:17:43.835Z,3.80
2023-03-03T23:20:14.353Z,3.70
2023-03-03T23:22:47.014Z,3.70
2023-03-03T23:25:18.509Z,3.60
2023-03-03T23:27:48.548Z,3.60
2023-03-03T23:30:21.355Z,3.60
2023-03-03T23:32:54.947Z,3.50
2023-03-03T23:35:26.495Z,3.40
2023-03-03T23:37:57.033Z,3.40
2023-03-03T23:40:34.576Z,3.30
2023-03-03T23:43:08.191Z,3.30
2023-03-03T23:45:39.119Z,3.30
2023-03-03T23:48:09.069Z,3.30
2023-03-03T23:50:40.185Z,3.30
2023-03-03T23:53:11.845Z,3.20
2023-03-03T23:55:43.570Z,3.20
2023-03-03T23:58:12.022Z,3.20
